Terminal Aerodrome Forecast
Issued by NWS

Home | Current Version | Previous Version | Text Only | Print | Product List | Glossary On
Versions: 1 2 3 4 5 6 7 8 9 10 11 12 13 14 15 16 17 18 19 20 21 22 23 24 25 26 27 28 29 30 31 32 33 34 35
000
FTUS44 KHGX 052339
TAFSGR
TAF
KSGR 052339Z 0600/0624 15016G26KT P6SM VCSH SCT045 BKN070
     FM060100 13010G20KT P6SM SCT025
     FM060400 13011KT P6SM SCT015 BKN100
     FM061900 14012G22KT P6SM VCTS SCT025 BKN040CB=

USA.gov is the U.S. government's official web portal to all federal, state and local government web resources and services.